Time;durP1;ratioP1;P1;durP2;ratioP2;P2;SDS_P1;SDS_P2;PMS_P1;PMS_P2;Temp;Humidity;BMP_temperature;BMP_pressure;BME280_temperature;BME280_humidity;BME280_pressure;Samples;Min_cycle;Max_cycle;Signal;HPM_P1;HPM_P2
2022/12/21 00:02:08;;;;;;;58.17;33.67;;;;;;;;;;5054662;28;20208;-77
2022/12/21 00:04:34;;;;;;;58.67;35.17;;;;;;;;;;5068175;28;20335;-76
2022/12/21 00:07:00;;;;;;;48.93;31.70;;;;;;;;;;5066141;28;20223;-77
2022/12/21 00:09:26;;;;;;;51.87;32.43;;;;;;;;;;5069497;28;20587;-75
2022/12/21 00:11:52;;;;;;;54.63;33.67;;;;;;;;;;5056277;28;20188;-78
2022/12/21 00:14:18;;;;;;;49.00;31.57;;;;;;;;;;5055056;28;20619;-76
2022/12/21 00:16:44;;;;;;;49.10;31.90;;;;;;;;;;5061789;28;20193;-78
2022/12/21 00:19:16;;;;;;;49.00;31.57;;;;;;;;;;5059803;28;20200;-78
2022/12/21 00:21:43;;;;;;;53.13;33.97;;;;;;;;;;5065127;28;20200;-77
2022/12/21 00:24:08;;;;;;;51.00;32.63;;;;;;;;;;5072610;28;20656;-77
2022/12/21 00:26:36;;;;;;;56.30;34.10;;;;;;;;;;5071941;28;20177;-75
2022/12/21 00:29:02;;;;;;;50.80;32.03;;;;;;;;;;5056818;28;20189;-76
2022/12/21 00:31:35;;;;;;;55.10;33.23;;;;;;;;;;5068366;28;20181;-78
2022/12/21 00:34:02;;;;;;;51.53;33.63;;;;;;;;;;5072020;28;20209;-77
2022/12/21 00:36:28;;;;;;;50.57;32.10;;;;;;;;;;5069775;28;20228;-75
2022/12/21 00:38:54;;;;;;;56.40;35.50;;;;;;;;;;5055100;28;20185;-77
2022/12/21 00:41:21;;;;;;;52.23;33.27;;;;;;;;;;5070194;28;20201;-77
2022/12/21 00:43:48;;;;;;;54.93;35.10;;;;;;;;;;5056932;28;20189;-77
2022/12/21 00:46:16;;;;;;;51.37;33.30;;;;;;;;;;5056781;28;20216;-77
2022/12/21 00:48:42;;;;;;;51.90;32.80;;;;;;;;;;5058848;28;20217;-77
2022/12/21 00:51:10;;;;;;;51.17;32.03;;;;;;;;;;5070857;28;20593;-77
2022/12/21 00:53:36;;;;;;;52.47;33.20;;;;;;;;;;5055881;28;20186;-77
2022/12/21 00:56:03;;;;;;;55.97;33.07;;;;;;;;;;5059775;28;20186;-77
2022/12/21 00:58:30;;;;;;;47.53;29.93;;;;;;;;;;5069473;28;20181;-77
2022/12/21 01:00:57;;;;;;;46.17;30.00;;;;;;;;;;5071870;28;20185;-78
2022/12/21 01:03:23;;;;;;;47.70;29.87;;;;;;;;;;5068477;28;20189;-77
2022/12/21 01:05:50;;;;;;;40.60;27.80;;;;;;;;;;5069775;28;20212;-76
2022/12/21 01:08:17;;;;;;;49.10;29.63;;;;;;;;;;5072201;28;20185;-75
2022/12/21 01:10:43;;;;;;;44.60;29.27;;;;;;;;;;5057287;28;20212;-77
2022/12/21 01:13:10;;;;;;;44.47;29.57;;;;;;;;;;5062967;28;20178;-77
2022/12/21 01:15:39;;;;;;;40.60;27.40;;;;;;;;;;5059399;28;20197;-78
2022/12/21 01:18:05;;;;;;;40.27;27.47;;;;;;;;;;5071892;28;20180;-76
2022/12/21 01:20:31;;;;;;;45.50;28.67;;;;;;;;;;5071180;28;20583;-77
2022/12/21 01:22:57;;;;;;;42.73;27.00;;;;;;;;;;5059949;28;20174;-77
2022/12/21 01:25:23;;;;;;;45.47;29.23;;;;;;;;;;5062398;28;20250;-77
2022/12/21 01:27:49;;;;;;;40.87;28.07;;;;;;;;;;5067541;28;20640;-76
2022/12/21 01:30:16;;;;;;;47.20;28.33;;;;;;;;;;5057846;28;20181;-77
2022/12/21 01:32:42;;;;;;;41.40;27.43;;;;;;;;;;5069409;28;20178;-76
2022/12/21 01:35:08;;;;;;;43.77;27.67;;;;;;;;;;5067331;28;20325;-77
2022/12/21 01:37:35;;;;;;;41.33;27.67;;;;;;;;;;5069128;28;20209;-77
2022/12/21 01:40:02;;;;;;;42.70;26.47;;;;;;;;;;5065421;28;20259;-77
2022/12/21 01:42:28;;;;;;;39.57;27.47;;;;;;;;;;5060290;28;20192;-78
2022/12/21 01:45:02;;;;;;;45.23;28.80;;;;;;;;;;5052752;28;20681;-77
2022/12/21 01:47:47;;;;;;;41.13;27.17;;;;;;;;;;5069228;28;20173;-76
2022/12/21 01:50:19;;;;;;;43.93;27.87;;;;;;;;;;5087673;28;20165;-76
2022/12/21 01:52:45;;;;;;;42.73;28.57;;;;;;;;;;5056228;28;20186;-76
2022/12/21 01:55:11;;;;;;;44.73;28.97;;;;;;;;;;5057982;28;20205;-75
2022/12/21 01:57:37;;;;;;;41.20;27.37;;;;;;;;;;5058135;28;20189;-77
2022/12/21 02:00:04;;;;;;;43.03;28.17;;;;;;;;;;5054377;28;20181;-75
2022/12/21 02:02:36;;;;;;;37.93;24.97;;;;;;;;;;5052132;28;20189;-77
2022/12/21 02:05:13;;;;;;;37.27;25.80;;;;;;;;;;5051943;28;20229;-77
2022/12/21 02:07:40;;;;;;;40.73;26.83;;;;;;;;;;5062572;28;20192;-75
2022/12/21 02:10:06;;;;;;;38.43;27.30;;;;;;;;;;5065832;28;20575;-77
2022/12/21 02:12:32;;;;;;;43.53;27.67;;;;;;;;;;5057837;28;20185;-77
2022/12/21 02:14:59;;;;;;;39.80;26.63;;;;;;;;;;5053417;28;20239;-75
2022/12/21 02:17:35;;;;;;;39.07;27.30;;;;;;;;;;5057180;28;20235;-75
2022/12/21 02:20:37;;;;;;;38.83;24.93;;;;;;;;;;5072761;28;20182;-75
2022/12/21 02:23:18;;;;;;;39.60;26.43;;;;;;;;;;5031482;28;20181;-77
2022/12/21 02:25:46;;;;;;;41.30;27.27;;;;;;;;;;5032551;28;20631;-77
2022/12/21 02:28:12;;;;;;;40.50;28.20;;;;;;;;;;5028920;28;20178;-78
2022/12/21 02:30:44;;;;;;;44.73;28.57;;;;;;;;;;5036752;28;20673;-77
2022/12/21 02:33:10;;;;;;;41.90;27.37;;;;;;;;;;5032601;28;20193;-77
2022/12/21 02:35:51;;;;;;;40.17;25.77;;;;;;;;;;5032531;28;20322;-76
2022/12/21 02:38:36;;;;;;;41.77;28.23;;;;;;;;;;5050001;28;20620;-76
2022/12/21 02:41:05;;;;;;;42.03;28.60;;;;;;;;;;5049622;28;20189;-76
2022/12/21 02:46:29;;;;;;;39.40;26.87;;;;;;;;;;5048652;28;20338;-77
2022/12/21 02:49:02;;;;;;;43.93;28.13;;;;;;;;;;5048937;28;20196;-77
2022/12/21 02:51:48;;;;;;;43.43;27.23;;;;;;;;;;5048948;28;20197;-78
2022/12/21 02:54:14;;;;;;;43.73;27.73;;;;;;;;;;5034457;28;20186;-77
2022/12/21 02:56:40;;;;;;;38.57;26.27;;;;;;;;;;5056391;28;20185;-76
2022/12/21 02:59:07;;;;;;;39.47;26.37;;;;;;;;;;5058037;28;20213;-75
2022/12/21 03:01:33;;;;;;;39.50;27.03;;;;;;;;;;5054477;28;20192;-78
2022/12/21 03:04:05;;;;;;;39.43;26.87;;;;;;;;;;5057742;28;20177;-78
2022/12/21 03:06:58;;;;;;;39.70;27.90;;;;;;;;;;5067923;28;20626;-76
2022/12/21 03:09:30;;;;;;;39.90;26.60;;;;;;;;;;5069652;28;20181;-76
2022/12/21 03:12:15;;;;;;;44.97;27.80;;;;;;;;;;5052779;28;20185;-77
2022/12/21 03:14:41;;;;;;;40.50;27.97;;;;;;;;;;5066838;28;20566;-76
2022/12/21 03:17:12;;;;;;;40.37;27.07;;;;;;;;;;5057712;28;20174;-77
2022/12/21 03:19:45;;;;;;;41.03;26.97;;;;;;;;;;5058886;28;20235;-77
2022/12/21 03:22:17;;;;;;;43.53;27.40;;;;;;;;;;5060321;28;20638;-78
2022/12/21 03:24:49;;;;;;;41.77;27.33;;;;;;;;;;5057333;28;20288;-76
2022/12/21 03:27:21;;;;;;;45.57;28.37;;;;;;;;;;5067326;28;20181;-76
2022/12/21 03:29:53;;;;;;;45.13;28.50;;;;;;;;;;5065524;28;20205;-78
2022/12/21 03:32:22;;;;;;;38.93;26.20;;;;;;;;;;5054952;28;20516;-76
2022/12/21 03:34:50;;;;;;;38.83;25.50;;;;;;;;;;5067531;28;20787;-76
2022/12/21 03:37:21;;;;;;;38.80;27.00;;;;;;;;;;5062695;28;20181;-77
2022/12/21 03:39:51;;;;;;;41.03;26.27;;;;;;;;;;5056806;28;20173;-76
2022/12/21 03:42:29;;;;;;;42.13;27.23;;;;;;;;;;5054333;28;20204;-76
2022/12/21 03:45:01;;;;;;;41.23;26.63;;;;;;;;;;5067607;28;20697;-77
2022/12/21 03:47:30;;;;;;;38.03;25.87;;;;;;;;;;5055800;28;20177;-76
2022/12/21 03:50:00;;;;;;;40.07;25.10;;;;;;;;;;5053518;28;20247;-76
2022/12/21 03:52:32;;;;;;;38.93;26.37;;;;;;;;;;5060407;28;20204;-77
2022/12/21 03:55:01;;;;;;;43.73;27.10;;;;;;;;;;5054106;28;20190;-77
2022/12/21 03:57:27;;;;;;;40.17;27.27;;;;;;;;;;5055769;28;20226;-75
2022/12/21 03:59:56;;;;;;;39.13;25.70;;;;;;;;;;5066977;28;20174;-77
2022/12/21 04:02:22;;;;;;;46.53;29.23;;;;;;;;;;5062592;28;20257;-75
2022/12/21 04:04:51;;;;;;;45.77;28.27;;;;;;;;;;5059142;28;20300;-76
2022/12/21 04:07:18;;;;;;;43.43;28.67;;;;;;;;;;5062096;28;20188;-76
2022/12/21 04:09:45;;;;;;;41.67;28.17;;;;;;;;;;5065423;28;20235;-76
2022/12/21 04:14:57;;;;;;;44.13;28.27;;;;;;;;;;5053453;28;20272;-76
2022/12/21 04:17:23;;;;;;;44.30;28.43;;;;;;;;;;5055777;28;20265;-75
2022/12/21 04:19:58;;;;;;;40.83;28.33;;;;;;;;;;5066471;28;20700;-78
2022/12/21 04:28:09;;;;;;;42.97;28.33;;;;;;;;;;5068509;28;20207;-76
2022/12/21 04:30:37;;;;;;;50.63;30.13;;;;;;;;;;5059805;28;20184;-77
2022/12/21 04:33:03;;;;;;;45.37;27.80;;;;;;;;;;5070776;28;20669;-76
2022/12/21 04:35:29;;;;;;;50.97;29.93;;;;;;;;;;5068897;28;20221;-77
2022/12/21 04:37:55;;;;;;;43.90;29.17;;;;;;;;;;5067548;28;20186;-77
2022/12/21 04:40:21;;;;;;;42.97;28.13;;;;;;;;;;5058909;28;20189;-75
2022/12/21 04:42:47;;;;;;;51.43;30.87;;;;;;;;;;5059404;28;20239;-76
2022/12/21 04:45:13;;;;;;;48.50;30.40;;;;;;;;;;5054692;28;20201;-75
2022/12/21 04:47:39;;;;;;;44.87;28.93;;;;;;;;;;5058603;28;20177;-76
2022/12/21 04:50:06;;;;;;;45.90;29.83;;;;;;;;;;5064313;28;20189;-76
2022/12/21 04:52:32;;;;;;;47.73;30.33;;;;;;;;;;5059236;28;20181;-77
2022/12/21 04:54:58;;;;;;;45.10;28.90;;;;;;;;;;5059511;28;20185;-76
2022/12/21 04:57:24;;;;;;;48.27;30.90;;;;;;;;;;5056785;28;20192;-74
2022/12/21 04:59:50;;;;;;;41.80;27.83;;;;;;;;;;5066656;28;20181;-76
2022/12/21 05:02:16;;;;;;;41.97;27.40;;;;;;;;;;5060347;28;20685;-76
2022/12/21 05:04:42;;;;;;;46.50;29.50;;;;;;;;;;5059310;28;20206;-77
2022/12/21 05:07:08;;;;;;;43.40;28.83;;;;;;;;;;5059884;28;20230;-76
2022/12/21 05:09:34;;;;;;;49.00;30.03;;;;;;;;;;5069105;28;22871;-76
2022/12/21 05:12:00;;;;;;;46.20;29.73;;;;;;;;;;5069015;28;20176;-77
2022/12/21 05:14:26;;;;;;;45.13;30.73;;;;;;;;;;5067817;28;20170;-76
2022/12/21 05:16:53;;;;;;;42.57;28.70;;;;;;;;;;5055986;28;20181;-77
2022/12/21 05:19:19;;;;;;;45.23;29.40;;;;;;;;;;5062325;28;20826;-76
2022/12/21 05:21:45;;;;;;;46.93;29.37;;;;;;;;;;5065922;28;20196;-76
2022/12/21 05:24:11;;;;;;;45.73;29.33;;;;;;;;;;5068824;28;20633;-77
2022/12/21 05:26:38;;;;;;;53.87;32.63;;;;;;;;;;5071665;28;20212;-76
2022/12/21 05:29:04;;;;;;;108.00;63.57;;;;;;;;;;5060607;28;20197;-75
2022/12/21 05:31:30;;;;;;;116.07;69.63;;;;;;;;;;5073422;28;20197;-78
2022/12/21 05:33:56;;;;;;;83.87;52.33;;;;;;;;;;5061701;28;20642;-75
2022/12/21 05:36:22;;;;;;;74.43;48.50;;;;;;;;;;5068251;28;20233;-76
2022/12/21 05:38:48;;;;;;;50.90;35.00;;;;;;;;;;5067277;28;20178;-77
2022/12/21 05:41:16;;;;;;;45.97;30.47;;;;;;;;;;5058903;28;20216;-76
2022/12/21 05:43:42;;;;;;;45.63;30.73;;;;;;;;;;5054049;28;20185;-77
2022/12/21 05:46:09;;;;;;;45.77;28.63;;;;;;;;;;5058804;28;20325;-77
2022/12/21 05:48:36;;;;;;;43.60;30.33;;;;;;;;;;5059595;28;20239;-78
2022/12/21 05:51:08;;;;;;;49.53;32.20;;;;;;;;;;5068884;28;20264;-77
2022/12/21 05:53:34;;;;;;;42.93;28.10;;;;;;;;;;5067510;28;20212;-78
2022/12/21 05:56:00;;;;;;;43.90;29.13;;;;;;;;;;5064726;28;20196;-76
2022/12/21 05:58:26;;;;;;;44.73;29.00;;;;;;;;;;5060454;28;20260;-76
2022/12/21 06:00:52;;;;;;;41.20;27.53;;;;;;;;;;5057843;28;20634;-77
2022/12/21 06:03:18;;;;;;;45.27;28.90;;;;;;;;;;5063566;28;20215;-77
2022/12/21 06:05:44;;;;;;;43.93;29.27;;;;;;;;;;5052213;28;20205;-76
2022/12/21 06:08:10;;;;;;;43.37;27.77;;;;;;;;;;5054267;28;20662;-76
2022/12/21 06:10:37;;;;;;;43.60;27.87;;;;;;;;;;5064594;28;20216;-78
2022/12/21 06:13:03;;;;;;;48.63;27.97;;;;;;;;;;5067123;28;20204;-77
2022/12/21 06:15:29;;;;;;;41.83;27.37;;;;;;;;;;5054087;28;20185;-76
2022/12/21 06:17:56;;;;;;;45.73;28.50;;;;;;;;;;5060259;28;20649;-78
2022/12/21 06:20:22;;;;;;;47.20;28.70;;;;;;;;;;5059689;28;20166;-75
2022/12/21 06:22:48;;;;;;;41.00;28.40;;;;;;;;;;5069756;28;20192;-76
2022/12/21 06:25:14;;;;;;;39.93;28.53;;;;;;;;;;5065949;28;20213;-78
2022/12/21 06:27:40;;;;;;;45.30;29.37;;;;;;;;;;5068144;28;20186;-78
2022/12/21 06:30:06;;;;;;;41.27;27.07;;;;;;;;;;5067321;28;20174;-75
2022/12/21 06:32:32;;;;;;;46.07;28.83;;;;;;;;;;5062794;28;20178;-76
2022/12/21 06:34:58;;;;;;;42.90;28.43;;;;;;;;;;5058068;28;20284;-77
2022/12/21 06:37:24;;;;;;;46.93;30.00;;;;;;;;;;5062987;28;20177;-76
2022/12/21 06:39:50;;;;;;;41.00;28.20;;;;;;;;;;5056540;28;20597;-77
2022/12/21 06:42:16;;;;;;;42.23;26.97;;;;;;;;;;5053649;28;20186;-77
2022/12/21 06:44:42;;;;;;;42.53;25.70;;;;;;;;;;5051773;28;20197;-77
2022/12/21 06:47:08;;;;;;;42.80;28.10;;;;;;;;;;5054434;28;20231;-78
2022/12/21 06:49:34;;;;;;;43.90;29.30;;;;;;;;;;5052509;28;20196;-77
2022/12/21 06:52:00;;;;;;;43.37;28.10;;;;;;;;;;5056047;28;20185;-78
2022/12/21 06:54:26;;;;;;;44.60;28.17;;;;;;;;;;5066452;28;20194;-77
2022/12/21 06:56:52;;;;;;;43.47;29.30;;;;;;;;;;5055587;28;20613;-77
2022/12/21 06:59:18;;;;;;;46.23;28.90;;;;;;;;;;5055576;28;20182;-77
2022/12/21 07:01:44;;;;;;;39.00;26.20;;;;;;;;;;5064424;28;20195;-78
2022/12/21 07:04:10;;;;;;;39.67;26.20;;;;;;;;;;5065759;28;20272;-77
2022/12/21 07:06:36;;;;;;;40.53;25.10;;;;;;;;;;5067586;28;20266;-76
2022/12/21 07:09:02;;;;;;;37.97;24.90;;;;;;;;;;5066721;28;20174;-76
2022/12/21 07:11:29;;;;;;;38.73;25.60;;;;;;;;;;5056378;28;20174;-78
2022/12/21 07:13:56;;;;;;;41.63;26.30;;;;;;;;;;5065084;28;20185;-75
2022/12/21 07:16:23;;;;;;;39.10;26.83;;;;;;;;;;5064230;28;20197;-76
2022/12/21 07:18:49;;;;;;;41.83;26.67;;;;;;;;;;5055827;28;20188;-78
2022/12/21 07:21:16;;;;;;;38.30;25.17;;;;;;;;;;5059350;28;20188;-76
2022/12/21 07:23:43;;;;;;;39.43;25.47;;;;;;;;;;5053227;28;20334;-77
2022/12/21 07:26:11;;;;;;;39.40;25.03;;;;;;;;;;5063804;28;20210;-77
2022/12/21 07:28:37;;;;;;;39.20;25.60;;;;;;;;;;5057814;28;20294;-76
2022/12/21 07:31:08;;;;;;;36.93;25.43;;;;;;;;;;5054252;28;20655;-78
2022/12/21 07:33:34;;;;;;;40.77;25.03;;;;;;;;;;5061408;28;20196;-76
2022/12/21 07:36:01;;;;;;;38.57;25.33;;;;;;;;;;5067807;28;20233;-77
2022/12/21 07:38:30;;;;;;;41.50;24.67;;;;;;;;;;5069728;28;20181;-76
2022/12/21 07:40:57;;;;;;;38.63;25.13;;;;;;;;;;5064947;28;20520;-76
2022/12/21 07:43:23;;;;;;;41.03;24.63;;;;;;;;;;5056496;28;20185;-76
2022/12/21 07:45:49;;;;;;;41.83;25.70;;;;;;;;;;5067741;28;20220;-77
2022/12/21 07:48:15;;;;;;;42.13;25.40;;;;;;;;;;5067527;28;20177;-77
2022/12/21 07:50:41;;;;;;;36.43;24.50;;;;;;;;;;5065395;28;20256;-78
2022/12/21 07:53:07;;;;;;;37.93;25.13;;;;;;;;;;5053558;28;20304;-77
2022/12/21 07:55:33;;;;;;;41.20;25.13;;;;;;;;;;5055520;28;20186;-77
2022/12/21 07:58:00;;;;;;;36.40;24.10;;;;;;;;;;5064538;28;20506;-79
2022/12/21 08:00:26;;;;;;;38.60;24.70;;;;;;;;;;5066223;28;20223;-75
2022/12/21 08:02:52;;;;;;;38.93;24.00;;;;;;;;;;5070430;28;20273;-77
2022/12/21 08:05:19;;;;;;;37.13;24.97;;;;;;;;;;5060701;28;20717;-79
2022/12/21 08:07:45;;;;;;;38.50;24.97;;;;;;;;;;5061183;28;20312;-78
2022/12/21 08:10:11;;;;;;;41.27;25.80;;;;;;;;;;5061141;28;20184;-76
2022/12/21 08:12:37;;;;;;;37.53;24.67;;;;;;;;;;5065889;28;20238;-78
2022/12/21 08:15:03;;;;;;;34.43;23.37;;;;;;;;;;5072224;28;20173;-76
2022/12/21 08:17:29;;;;;;;39.20;25.47;;;;;;;;;;5070186;28;20205;-76
2022/12/21 08:19:56;;;;;;;35.97;24.40;;;;;;;;;;5064981;28;20540;-77
2022/12/21 08:22:22;;;;;;;42.50;26.63;;;;;;;;;;5070655;28;20189;-77
2022/12/21 08:24:48;;;;;;;40.70;25.80;;;;;;;;;;5069824;28;20213;-77
2022/12/21 08:27:14;;;;;;;36.03;23.23;;;;;;;;;;5070564;28;20178;-77
2022/12/21 08:29:40;;;;;;;37.20;24.83;;;;;;;;;;5068010;28;20205;-77
2022/12/21 08:32:06;;;;;;;39.13;25.00;;;;;;;;;;5069561;28;20638;-76
2022/12/21 08:34:32;;;;;;;36.10;24.23;;;;;;;;;;5064387;28;20194;-77
2022/12/21 08:37:00;;;;;;;33.27;23.93;;;;;;;;;;5056511;28;20694;-78
2022/12/21 08:39:26;;;;;;;37.40;24.60;;;;;;;;;;5070657;28;20185;-76
2022/12/21 08:41:52;;;;;;;36.07;23.67;;;;;;;;;;5055358;28;20172;-77
2022/12/21 08:44:18;;;;;;;37.00;24.60;;;;;;;;;;5061285;28;20607;-75
2022/12/21 08:46:44;;;;;;;36.33;24.20;;;;;;;;;;5065838;28;20295;-76
2022/12/21 08:49:10;;;;;;;36.57;24.33;;;;;;;;;;5060559;28;20189;-78
2022/12/21 08:51:40;;;;;;;36.87;24.33;;;;;;;;;;5054202;28;20192;-76
2022/12/21 08:54:06;;;;;;;39.37;24.87;;;;;;;;;;5071611;28;20575;-76
2022/12/21 08:56:32;;;;;;;37.00;24.53;;;;;;;;;;5060900;28;20204;-77
2022/12/21 08:59:03;;;;;;;36.47;24.60;;;;;;;;;;5060013;28;20181;-76
2022/12/21 09:01:29;;;;;;;36.77;24.13;;;;;;;;;;5059989;28;20181;-77
2022/12/21 09:03:55;;;;;;;36.13;24.87;;;;;;;;;;5059122;28;20177;-75
2022/12/21 09:06:21;;;;;;;37.07;23.77;;;;;;;;;;5055511;28;20255;-75
2022/12/21 09:08:47;;;;;;;37.40;26.03;;;;;;;;;;5068840;28;20173;-77
2022/12/21 09:11:14;;;;;;;38.70;24.93;;;;;;;;;;5070576;28;20215;-77
2022/12/21 09:13:40;;;;;;;37.47;25.07;;;;;;;;;;5054186;28;20204;-74
2022/12/21 09:16:14;;;;;;;34.27;24.30;;;;;;;;;;5059654;28;20189;-75
2022/12/21 09:18:40;;;;;;;36.33;25.07;;;;;;;;;;5069179;28;20272;-77
2022/12/21 09:21:06;;;;;;;33.60;23.53;;;;;;;;;;5070791;28;20186;-77
2022/12/21 09:23:32;;;;;;;38.23;25.73;;;;;;;;;;5070103;28;20263;-77
2022/12/21 09:25:59;;;;;;;35.83;24.03;;;;;;;;;;5067503;28;20639;-75
2022/12/21 09:28:25;;;;;;;34.37;23.50;;;;;;;;;;5057068;28;20367;-76
2022/12/21 09:30:51;;;;;;;36.03;25.00;;;;;;;;;;5056135;28;20290;-77
2022/12/21 09:33:17;;;;;;;38.53;25.03;;;;;;;;;;5056085;28;20185;-77
2022/12/21 09:35:43;;;;;;;39.10;25.27;;;;;;;;;;5057812;28;20217;-77
2022/12/21 09:38:09;;;;;;;34.13;23.60;;;;;;;;;;5060247;28;20194;-76
2022/12/21 09:40:35;;;;;;;40.10;25.63;;;;;;;;;;5058280;28;20224;-77
2022/12/21 09:43:19;;;;;;;35.97;24.63;;;;;;;;;;5056826;28;20185;-75
2022/12/21 09:46:00;;;;;;;35.87;23.40;;;;;;;;;;5056389;28;20209;-76
2022/12/21 09:48:30;;;;;;;35.33;24.13;;;;;;;;;;5057814;28;20718;-74
2022/12/21 09:51:01;;;;;;;33.47;23.70;;;;;;;;;;5071904;28;20179;-75
2022/12/21 09:53:34;;;;;;;39.33;26.03;;;;;;;;;;5063140;28;20203;-75
2022/12/21 09:56:00;;;;;;;40.43;25.10;;;;;;;;;;5061640;28;20658;-76
2022/12/21 09:58:36;;;;;;;37.20;24.33;;;;;;;;;;5057794;28;20188;-75
2022/12/21 10:01:08;;;;;;;35.37;23.77;;;;;;;;;;5066919;28;20666;-75
2022/12/21 10:03:45;;;;;;;34.67;22.53;;;;;;;;;;5056685;28;20268;-74
2022/12/21 10:06:11;;;;;;;35.80;24.80;;;;;;;;;;5072513;28;20668;-76
2022/12/21 10:08:49;;;;;;;35.67;24.20;;;;;;;;;;5069824;28;20180;-74
2022/12/21 10:11:33;;;;;;;33.90;22.63;;;;;;;;;;5067019;28;20193;-76
2022/12/21 10:13:59;;;;;;;33.63;23.53;;;;;;;;;;5054723;28;20749;-75
2022/12/21 10:16:48;;;;;;;33.27;22.23;;;;;;;;;;5057716;28;20220;-76
2022/12/21 10:19:18;;;;;;;33.57;22.33;;;;;;;;;;5037777;28;20285;-75
2022/12/21 10:21:47;;;;;;;35.73;22.80;;;;;;;;;;5031170;28;20631;-78
2022/12/21 10:24:21;;;;;;;33.20;22.63;;;;;;;;;;5044729;28;20667;-76
2022/12/21 10:26:49;;;;;;;33.60;23.33;;;;;;;;;;5048729;28;20685;-74
2022/12/21 10:29:18;;;;;;;31.53;22.07;;;;;;;;;;5048445;28;20196;-74
2022/12/21 10:31:45;;;;;;;33.00;22.67;;;;;;;;;;5026745;28;20185;-76
2022/12/21 10:34:18;;;;;;;33.63;22.77;;;;;;;;;;5031344;28;20177;-75
2022/12/21 10:36:46;;;;;;;30.93;22.23;;;;;;;;;;5031431;28;20229;-75
2022/12/21 10:39:13;;;;;;;32.33;23.13;;;;;;;;;;5029336;28;20174;-76
2022/12/21 10:41:42;;;;;;;35.60;22.57;;;;;;;;;;5043117;28;20187;-75
2022/12/21 10:44:09;;;;;;;34.40;23.47;;;;;;;;;;5044523;28;20289;-77
2022/12/21 10:46:36;;;;;;;34.80;22.73;;;;;;;;;;5048244;28;20245;-74
2022/12/21 10:49:21;;;;;;;33.97;22.27;;;;;;;;;;5046596;28;20194;-76
2022/12/21 10:51:47;;;;;;;34.03;23.13;;;;;;;;;;5033714;28;20280;-74
2022/12/21 10:54:13;;;;;;;30.53;21.10;;;;;;;;;;5021069;28;20262;-76
2022/12/21 10:56:43;;;;;;;36.93;23.63;;;;;;;;;;5061353;28;20242;-75
2022/12/21 10:59:19;;;;;;;32.10;22.73;;;;;;;;;;5068928;28;20189;-76
2022/12/21 11:01:45;;;;;;;32.80;21.57;;;;;;;;;;5060255;28;20595;-78
2022/12/21 11:04:26;;;;;;;35.00;22.67;;;;;;;;;;5057479;28;20188;-75
2022/12/21 11:06:59;;;;;;;34.00;22.67;;;;;;;;;;5053400;28;20262;-77
2022/12/21 11:09:27;;;;;;;34.00;22.23;;;;;;;;;;5066900;28;20515;-75
2022/12/21 11:11:54;;;;;;;34.43;23.37;;;;;;;;;;5067735;28;20272;-77
2022/12/21 11:14:20;;;;;;;35.20;23.77;;;;;;;;;;5068412;28;20207;-75
2022/12/21 11:16:47;;;;;;;34.30;23.37;;;;;;;;;;5063073;28;20247;-77
2022/12/21 11:19:14;;;;;;;34.80;23.50;;;;;;;;;;5056117;28;20238;-77
2022/12/21 11:21:40;;;;;;;35.60;23.00;;;;;;;;;;5060714;28;20662;-75
2022/12/21 11:24:11;;;;;;;33.03;21.70;;;;;;;;;;5071178;28;20208;-76
2022/12/21 11:26:41;;;;;;;34.80;22.50;;;;;;;;;;5063368;28;20237;-76
2022/12/21 11:29:14;;;;;;;34.23;21.83;;;;;;;;;;5057429;28;20181;-76
2022/12/21 11:31:40;;;;;;;32.07;23.40;;;;;;;;;;5068602;28;20200;-76
2022/12/21 11:34:17;;;;;;;33.50;22.10;;;;;;;;;;5068660;28;20192;-75
2022/12/21 11:37:09;;;;;;;33.17;22.43;;;;;;;;;;5053797;28;20212;-75
2022/12/21 11:39:38;;;;;;;31.87;21.37;;;;;;;;;;5008297;28;20234;-78
2022/12/21 11:42:16;;;;;;;34.50;23.00;;;;;;;;;;5027620;28;20300;-75
2022/12/21 11:44:42;;;;;;;36.00;23.17;;;;;;;;;;5028245;28;20190;-75
2022/12/21 11:47:08;;;;;;;35.37;24.50;;;;;;;;;;5010948;28;20269;-77
2022/12/21 11:49:34;;;;;;;32.90;22.97;;;;;;;;;;5043856;28;20182;-76
2022/12/21 11:52:10;;;;;;;30.07;21.50;;;;;;;;;;5038549;28;20245;-76
2022/12/21 11:54:55;;;;;;;35.20;24.07;;;;;;;;;;5027463;28;21245;-76
2022/12/21 11:57:31;;;;;;;33.57;22.53;;;;;;;;;;5027495;28;20240;-76
2022/12/21 11:59:57;;;;;;;36.30;22.87;;;;;;;;;;5011105;28;20309;-74
2022/12/21 12:02:41;;;;;;;34.53;23.50;;;;;;;;;;5006706;28;20183;-77
2022/12/21 12:05:26;;;;;;;34.83;24.23;;;;;;;;;;5006174;28;20213;-77
2022/12/21 12:08:12;;;;;;;33.47;23.17;;;;;;;;;;5010797;28;20186;-77
2022/12/21 12:10:38;;;;;;;34.20;23.17;;;;;;;;;;5023391;28;20260;-75
2022/12/21 12:13:04;;;;;;;33.70;22.73;;;;;;;;;;5043705;28;20728;-76
2022/12/21 12:15:39;;;;;;;35.53;24.70;;;;;;;;;;5033086;28;20190;-76
2022/12/21 12:18:08;;;;;;;35.40;23.80;;;;;;;;;;5068713;28;20169;-76
2022/12/21 12:20:44;;;;;;;35.53;23.53;;;;;;;;;;5068123;28;20185;-75
2022/12/21 12:23:16;;;;;;;35.57;23.53;;;;;;;;;;5067515;28;20195;-76
2022/12/21 12:25:50;;;;;;;34.60;24.20;;;;;;;;;;5065190;28;20213;-78
2022/12/21 12:28:32;;;;;;;36.17;24.43;;;;;;;;;;5063141;28;20178;-78
2022/12/21 12:31:01;;;;;;;34.43;24.10;;;;;;;;;;5051853;28;20182;-76
2022/12/21 12:33:42;;;;;;;32.70;23.73;;;;;;;;;;5081780;28;20169;-76
2022/12/21 12:36:17;;;;;;;34.50;22.90;;;;;;;;;;5069708;28;20228;-75
2022/12/21 12:39:07;;;;;;;32.77;23.40;;;;;;;;;;5066215;28;20188;-76
2022/12/21 12:41:48;;;;;;;32.30;22.60;;;;;;;;;;5056874;28;20192;-75
2022/12/21 12:44:14;;;;;;;33.17;23.40;;;;;;;;;;5064778;28;20650;-75
2022/12/21 12:46:56;;;;;;;36.30;23.77;;;;;;;;;;5065305;28;20205;-75
2022/12/21 12:49:28;;;;;;;33.50;24.10;;;;;;;;;;5068334;28;20185;-75
2022/12/21 12:51:54;;;;;;;34.80;23.83;;;;;;;;;;5054753;28;20196;-77
2022/12/21 12:54:27;;;;;;;38.00;24.63;;;;;;;;;;5065947;28;20538;-77
2022/12/21 12:57:22;;;;;;;36.20;24.60;;;;;;;;;;5056977;28;20224;-75
2022/12/21 12:59:51;;;;;;;34.87;22.80;;;;;;;;;;5062975;28;20250;-76
2022/12/21 13:02:29;;;;;;;35.07;23.33;;;;;;;;;;5067446;28;20653;-77
2022/12/21 13:04:58;;;;;;;37.00;23.60;;;;;;;;;;5060636;28;20216;-77
2022/12/21 13:07:50;;;;;;;35.63;23.73;;;;;;;;;;5062462;28;20189;-77
2022/12/21 13:10:39;;;;;;;36.57;24.37;;;;;;;;;;5018249;28;20293;-77
2022/12/21 13:13:18;;;;;;;38.07;25.00;;;;;;;;;;4986707;28;20195;-77
2022/12/21 13:16:04;;;;;;;35.63;23.90;;;;;;;;;;5009690;28;20274;-76
2022/12/21 13:18:32;;;;;;;33.63;23.57;;;;;;;;;;4949202;29;20678;-75
2022/12/21 13:20:59;;;;;;;37.03;25.87;;;;;;;;;;4935549;29;20649;-75
2022/12/21 13:23:44;;;;;;;32.20;22.50;;;;;;;;;;4951956;29;20197;-76
2022/12/21 13:26:12;;;;;;;37.77;24.70;;;;;;;;;;4930150;29;20208;-76
2022/12/21 13:28:41;;;;;;;34.50;23.10;;;;;;;;;;4952132;28;20220;-76
2022/12/21 13:31:08;;;;;;;36.60;24.77;;;;;;;;;;4951094;29;20205;-78
2022/12/21 13:33:38;;;;;;;34.10;23.87;;;;;;;;;;4935770;29;20189;-76
2022/12/21 13:36:06;;;;;;;37.13;25.07;;;;;;;;;;4945457;28;20248;-76
2022/12/21 13:38:36;;;;;;;35.93;24.67;;;;;;;;;;4951170;29;20225;-77
2022/12/21 13:41:02;;;;;;;35.77;23.87;;;;;;;;;;4934747;29;20228;-75
2022/12/21 13:43:34;;;;;;;40.90;26.30;;;;;;;;;;4950968;29;20737;-75
2022/12/21 13:46:06;;;;;;;39.53;27.27;;;;;;;;;;4935655;29;20240;-75
2022/12/21 13:48:38;;;;;;;32.87;23.40;;;;;;;;;;4941767;29;20185;-77
2022/12/21 13:51:04;;;;;;;37.80;24.73;;;;;;;;;;4992912;28;20191;-74
2022/12/21 13:53:38;;;;;;;33.60;23.80;;;;;;;;;;4987406;28;20711;-76
2022/12/21 13:56:23;;;;;;;36.30;24.27;;;;;;;;;;5038834;28;20201;-75
2022/12/21 13:58:59;;;;;;;37.10;25.33;;;;;;;;;;5060824;28;20186;-75
2022/12/21 14:01:43;;;;;;;39.77;26.13;;;;;;;;;;5064528;28;20709;-75
2022/12/21 14:04:14;;;;;;;37.00;25.93;;;;;;;;;;5054169;28;20177;-76
2022/12/21 14:06:40;;;;;;;38.13;25.87;;;;;;;;;;5052471;28;20241;-75
2022/12/21 14:09:17;;;;;;;36.27;25.87;;;;;;;;;;5065784;28;20219;-76
2022/12/21 14:11:43;;;;;;;44.20;28.30;;;;;;;;;;5069796;28;20251;-74
2022/12/21 14:14:24;;;;;;;44.87;30.00;;;;;;;;;;5066193;28;20192;-76
2022/12/21 14:16:58;;;;;;;43.83;29.90;;;;;;;;;;5057220;28;20193;-77
2022/12/21 14:19:26;;;;;;;45.30;29.87;;;;;;;;;;5053596;28;20187;-77
2022/12/21 14:21:53;;;;;;;43.17;29.10;;;;;;;;;;5068122;28;20269;-76
2022/12/21 14:24:26;;;;;;;43.13;29.77;;;;;;;;;;5052236;28;20166;-77
2022/12/21 14:27:09;;;;;;;43.57;29.43;;;;;;;;;;5065867;28;20209;-76
2022/12/21 14:29:43;;;;;;;48.67;30.97;;;;;;;;;;5063601;28;20181;-76
2022/12/21 14:32:13;;;;;;;45.40;28.90;;;;;;;;;;5062818;28;20178;-75
2022/12/21 14:34:44;;;;;;;54.43;32.90;;;;;;;;;;5053705;28;20217;-77
2022/12/21 14:37:10;;;;;;;46.00;30.00;;;;;;;;;;5053144;28;20197;-78
2022/12/21 14:40:00;;;;;;;47.00;31.80;;;;;;;;;;5069751;28;20260;-77
2022/12/21 14:42:30;;;;;;;49.20;32.13;;;;;;;;;;5067792;28;20180;-77